UAL1885 KTPA-KSFO
Flight info
| Callsign | UAL1885 |
|---|---|
| Flight time | N/A |
| Altitude | 32000 |
| Route | DORMR3 FROOT ROZZI Y280 LEV LLA SBI IAH J86 FST/N0469F340 J86 ELP PGS BLD BTY RUSME DYAMD5 |
| Aircraft | B739/M-SDE2E3FGHIRWXY/LB1 |
Departure
| Time | 2026-04-30 20:20 |
|---|---|
| Airport | Tampa International Airport (KTPA) |
Arrival
| Time | N/A |
|---|---|
| Airport | San Francisco International Airport (KSFO) |
| Time | Latitude | Longitude | Altitude | Speed | Heading |
|---|---|---|---|---|---|
| 2026-04-30 19:55 | 27.97450 | -82.53195 | 42 ft | 0 kts | 9° |
| 2026-04-30 20:06 | 27.97451 | -82.53195 | 60 ft | 0 kts | 9° |
| 2026-04-30 20:06 | 27.97428 | -82.53200 | 42 ft | 4 kts | 9° |
| 2026-04-30 20:06 | 27.97420 | -82.53201 | 41 ft | 0 kts | 9° |
| 2026-04-30 20:12 | 27.97421 | -82.53201 | 42 ft | 0 kts | 4° |
| 2026-04-30 20:12 | 27.97430 | -82.53209 | 42 ft | 3 kts | 303° |
| 2026-04-30 20:13 | 27.97425 | -82.53226 | 40 ft | 2 kts | 244° |
| 2026-04-30 20:13 | 27.97417 | -82.53243 | 42 ft | 6 kts | 242° |
| 2026-04-30 20:13 | 27.97388 | -82.53293 | 40 ft | 8 kts | 225° |
| 2026-04-30 20:13 | 27.97346 | -82.53316 | 42 ft | 6 kts | 194° |
| 2026-04-30 20:14 | 27.97322 | -82.53304 | 42 ft | 3 kts | 129° |
| 2026-04-30 20:14 | 27.97318 | -82.53291 | 42 ft | 2 kts | 108° |
| 2026-04-30 20:14 | 27.97313 | -82.53257 | 42 ft | 10 kts | 97° |
| 2026-04-30 20:14 | 27.97308 | -82.53157 | 42 ft | 15 kts | 91° |
| 2026-04-30 20:15 | 27.97308 | -82.53044 | 41 ft | 13 kts | 85° |
| 2026-04-30 20:15 | 27.97362 | -82.52993 | 40 ft | 10 kts | 6° |
| 2026-04-30 20:15 | 27.97427 | -82.52990 | 40 ft | 9 kts | 1° |
| 2026-04-30 20:15 | 27.97482 | -82.52989 | 41 ft | 8 kts | 1° |
| 2026-04-30 20:16 | 27.97540 | -82.52987 | 41 ft | 11 kts | 2° |
| 2026-04-30 20:16 | 27.97644 | -82.52984 | 41 ft | 17 kts | 1° |
| 2026-04-30 20:16 | 27.97763 | -82.52981 | 41 ft | 17 kts | 2° |
| 2026-04-30 20:16 | 27.97881 | -82.52977 | 41 ft | 18 kts | 1° |
| 2026-04-30 20:17 | 27.98011 | -82.52971 | 41 ft | 20 kts | 3° |
| 2026-04-30 20:17 | 27.98147 | -82.52965 | 40 ft | 19 kts | 2° |
| 2026-04-30 20:17 | 27.98272 | -82.52962 | 40 ft | 17 kts | 360° |
| 2026-04-30 20:17 | 27.98381 | -82.52959 | 40 ft | 14 kts | 3° |
| 2026-04-30 20:18 | 27.98473 | -82.52954 | 40 ft | 12 kts | 2° |
| 2026-04-30 20:18 | 27.98558 | -82.52951 | 40 ft | 12 kts | 1° |
| 2026-04-30 20:18 | 27.98640 | -82.52948 | 40 ft | 12 kts | 3° |
| 2026-04-30 20:18 | 27.98710 | -82.52916 | 38 ft | 11 kts | 56° |
| 2026-04-30 20:19 | 27.98704 | -82.52832 | 34 ft | 9 kts | 138° |
| 2026-04-30 20:19 | 27.98668 | -82.52822 | 36 ft | 8 kts | 177° |
| 2026-04-30 20:19 | 27.98264 | -82.52838 | 36 ft | 89 kts | 181° |
| 2026-04-30 20:19 | 27.97438 | -82.52865 | 37 ft | 147 kts | 181° |
| 2026-04-30 20:20 | 27.96271 | -82.52901 | 167 ft | 180 kts | 179° |
| 2026-04-30 20:20 | 27.94989 | -82.52896 | 716 ft | 189 kts | 185° |
| 2026-04-30 20:20 | 27.94123 | -82.53009 | 1112 ft | 191 kts | 198° |
| 2026-04-30 20:20 | 27.92895 | -82.53647 | 1575 ft | 201 kts | 214° |
| 2026-04-30 20:21 | 27.91638 | -82.54508 | 1745 ft | 222 kts | 214° |
| 2026-04-30 20:21 | 27.90514 | -82.55728 | 1985 ft | 232 kts | 241° |
| 2026-04-30 20:21 | 27.89740 | -82.57389 | 2299 ft | 246 kts | 244° |
| 2026-04-30 20:21 | 27.88949 | -82.59142 | 2882 ft | 252 kts | 244° |
| 2026-04-30 20:22 | 27.88145 | -82.60900 | 3694 ft | 253 kts | 244° |
| 2026-04-30 20:22 | 27.87333 | -82.62643 | 4375 ft | 255 kts | 244° |
| 2026-04-30 20:22 | 27.86483 | -82.64438 | 5008 ft | 260 kts | 243° |
| 2026-04-30 20:22 | 27.85629 | -82.66219 | 5721 ft | 262 kts | 243° |
| 2026-04-30 20:23 | 27.84745 | -82.68045 | 6312 ft | 268 kts | 243° |
| 2026-04-30 20:23 | 27.83841 | -82.69901 | 6920 ft | 270 kts | 243° |
| 2026-04-30 20:23 | 27.82935 | -82.71748 | 7622 ft | 269 kts | 243° |
| 2026-04-30 20:23 | 27.82022 | -82.73607 | 8244 ft | 272 kts | 243° |
| 2026-04-30 20:24 | 27.81106 | -82.75467 | 8900 ft | 273 kts | 244° |
| 2026-04-30 20:24 | 27.80178 | -82.77347 | 9566 ft | 275 kts | 244° |
| 2026-04-30 20:24 | 27.79242 | -82.79242 | 10187 ft | 276 kts | 244° |
| 2026-04-30 20:24 | 27.78279 | -82.81195 | 10420 ft | 295 kts | 244° |
| 2026-04-30 20:25 | 27.76156 | -82.85495 | 10712 ft | 332 kts | 244° |
| 2026-04-30 20:25 | 27.75000 | -82.87827 | 10839 ft | 349 kts | 244° |
| 2026-04-30 20:26 | 27.72539 | -82.92783 | 11190 ft | 374 kts | 243° |
| 2026-04-30 20:26 | 27.69974 | -82.97936 | 12128 ft | 378 kts | 243° |
| 2026-04-30 20:26 | 27.68685 | -83.00528 | 12591 ft | 380 kts | 243° |
| 2026-04-30 20:27 | 27.66522 | -83.05972 | 13425 ft | 382 kts | 257° |
| 2026-04-30 20:27 | 27.65782 | -83.11913 | 14262 ft | 384 kts | 266° |
| 2026-04-30 20:28 | 27.65271 | -83.17945 | 15038 ft | 388 kts | 266° |
| 2026-04-30 20:28 | 27.64716 | -83.24027 | 15821 ft | 391 kts | 265° |
| 2026-04-30 20:29 | 27.64144 | -83.30157 | 16558 ft | 395 kts | 265° |
| 2026-04-30 20:30 | 27.63274 | -83.39434 | 17637 ft | 400 kts | 266° |
| 2026-04-30 20:30 | 27.62383 | -83.48864 | 18592 ft | 405 kts | 266° |
| 2026-04-30 20:31 | 27.61476 | -83.58398 | 19482 ft | 408 kts | 266° |
| 2026-04-30 20:32 | 27.60556 | -83.68009 | 20214 ft | 414 kts | 266° |
| 2026-04-30 20:32 | 27.59931 | -83.74486 | 20690 ft | 416 kts | 266° |
| 2026-04-30 20:33 | 27.59621 | -83.77695 | 20916 ft | 418 kts | 266° |
| 2026-04-30 20:33 | 27.58987 | -83.84228 | 21374 ft | 420 kts | 265° |
| 2026-04-30 20:33 | 27.58667 | -83.87509 | 21579 ft | 422 kts | 265° |
| 2026-04-30 20:34 | 27.58022 | -83.94103 | 21992 ft | 424 kts | 265° |
| 2026-04-30 20:34 | 27.57371 | -84.00729 | 22383 ft | 426 kts | 265° |
| 2026-04-30 20:35 | 27.57042 | -84.04063 | 22559 ft | 428 kts | 265° |
| 2026-04-30 20:35 | 27.56712 | -84.07403 | 22738 ft | 429 kts | 265° |
| 2026-04-30 20:35 | 27.56058 | -84.14108 | 23067 ft | 431 kts | 267° |
| 2026-04-30 20:36 | 27.56018 | -84.17485 | 23220 ft | 431 kts | 274° |
| 2026-04-30 20:36 | 27.56419 | -84.20829 | 23377 ft | 431 kts | 281° |
| 2026-04-30 20:36 | 27.57561 | -84.27486 | 23648 ft | 433 kts | 281° |
| 2026-04-30 20:37 | 27.58121 | -84.30827 | 23773 ft | 434 kts | 281° |
| 2026-04-30 20:37 | 27.58669 | -84.34137 | 23898 ft | 435 kts | 280° |
| 2026-04-30 20:37 | 27.59219 | -84.37501 | 24025 ft | 436 kts | 280° |
| 2026-04-30 20:37 | 27.59764 | -84.40861 | 24154 ft | 436 kts | 280° |
| 2026-04-30 20:38 | 27.60308 | -84.44228 | 24273 ft | 437 kts | 280° |
| 2026-04-30 20:38 | 27.60852 | -84.47598 | 24394 ft | 438 kts | 280° |
| 2026-04-30 20:38 | 27.61396 | -84.50981 | 24511 ft | 438 kts | 280° |
| 2026-04-30 20:39 | 27.62484 | -84.57761 | 24749 ft | 440 kts | 280° |
| 2026-04-30 20:39 | 27.63029 | -84.61162 | 24859 ft | 441 kts | 280° |
| 2026-04-30 20:39 | 27.63574 | -84.64565 | 24968 ft | 441 kts | 280° |
| 2026-04-30 20:40 | 27.64664 | -84.71391 | 25207 ft | 442 kts | 280° |
| 2026-04-30 20:40 | 27.65208 | -84.74811 | 25322 ft | 443 kts | 280° |
| 2026-04-30 20:40 | 27.65745 | -84.78186 | 25423 ft | 444 kts | 280° |
| 2026-04-30 20:41 | 27.66833 | -84.85050 | 25635 ft | 445 kts | 280° |
| 2026-04-30 20:41 | 27.67377 | -84.88486 | 25726 ft | 446 kts | 280° |
| 2026-04-30 20:41 | 27.67923 | -84.91942 | 25882 ft | 445 kts | 280° |
| 2026-04-30 20:41 | 27.68464 | -84.95374 | 26057 ft | 444 kts | 280° |
| 2026-04-30 20:42 | 27.69004 | -84.98807 | 26224 ft | 443 kts | 280° |
| 2026-04-30 20:42 | 27.69542 | -85.02232 | 26376 ft | 443 kts | 280° |
| 2026-04-30 20:42 | 27.70616 | -85.09083 | 26690 ft | 443 kts | 280° |
| 2026-04-30 20:43 | 27.71151 | -85.12504 | 26862 ft | 442 kts | 280° |
| 2026-04-30 20:43 | 27.71678 | -85.15882 | 27053 ft | 442 kts | 280° |
| 2026-04-30 20:43 | 27.72210 | -85.19293 | 27251 ft | 441 kts | 280° |
| 2026-04-30 20:44 | 27.73269 | -85.26105 | 27638 ft | 440 kts | 279° |
| 2026-04-30 20:44 | 27.73877 | -85.29487 | 27830 ft | 440 kts | 284° |
| 2026-04-30 20:44 | 27.76171 | -85.35884 | 28274 ft | 440 kts | 294° |
| 2026-04-30 20:45 | 27.78823 | -85.42108 | 28730 ft | 439 kts | 294° |
| 2026-04-30 20:45 | 27.80124 | -85.45192 | 28968 ft | 438 kts | 294° |
| 2026-04-30 20:45 | 27.81427 | -85.48300 | 29214 ft | 437 kts | 294° |
| 2026-04-30 20:46 | 27.85302 | -85.57610 | 29996 ft | 435 kts | 294° |
| 2026-04-30 20:46 | 27.86584 | -85.60701 | 30236 ft | 434 kts | 294° |
| 2026-04-30 20:47 | 27.89139 | -85.66865 | 30764 ft | 431 kts | 294° |
| 2026-04-30 20:47 | 27.90395 | -85.69901 | 31028 ft | 430 kts | 294° |
| 2026-04-30 20:48 | 27.92920 | -85.76008 | 31583 ft | 427 kts | 294° |
| 2026-04-30 20:48 | 27.94176 | -85.79047 | 31851 ft | 426 kts | 294° |
| 2026-04-30 20:48 | 27.96686 | -85.85132 | 31939 ft | 427 kts | 294° |
| 2026-04-30 20:49 | 27.99193 | -85.91218 | 31942 ft | 425 kts | 294° |
| 2026-04-30 20:50 | 28.02913 | -86.00265 | 31949 ft | 423 kts | 294° |
| 2026-04-30 20:50 | 28.05392 | -86.06306 | 31940 ft | 422 kts | 293° |
| 2026-04-30 20:51 | 28.07862 | -86.12334 | 31944 ft | 421 kts | 293° |
| 2026-04-30 20:51 | 28.11555 | -86.21362 | 31942 ft | 421 kts | 293° |
| 2026-04-30 20:52 | 28.14015 | -86.27389 | 31940 ft | 421 kts | 293° |
| 2026-04-30 20:53 | 28.17688 | -86.36405 | 31937 ft | 422 kts | 293° |
| 2026-04-30 20:53 | 28.20147 | -86.42452 | 31941 ft | 423 kts | 293° |
| 2026-04-30 20:54 | 28.23824 | -86.51515 | 31938 ft | 424 kts | 293° |
| 2026-04-30 20:55 | 28.27522 | -86.60648 | 31937 ft | 424 kts | 292° |
| 2026-04-30 20:55 | 28.29983 | -86.66738 | 31933 ft | 424 kts | 292° |
| 2026-04-30 20:56 | 28.33194 | -86.76068 | 31960 ft | 423 kts | 287° |
| 2026-04-30 20:57 | 28.35921 | -86.85539 | 31934 ft | 422 kts | 287° |
| 2026-04-30 20:57 | 28.37756 | -86.91869 | 31937 ft | 421 kts | 287° |
| 2026-04-30 20:58 | 28.40506 | -87.01324 | 31938 ft | 420 kts | 287° |
| 2026-04-30 20:58 | 28.42324 | -87.07579 | 31939 ft | 419 kts | 287° |
| 2026-04-30 20:59 | 28.45055 | -87.17004 | 31934 ft | 418 kts | 287° |
| 2026-04-30 21:00 | 28.48679 | -87.29553 | 31937 ft | 417 kts | 287° |
| 2026-04-30 21:01 | 28.51379 | -87.38934 | 31934 ft | 418 kts | 286° |
| 2026-04-30 21:02 | 28.54087 | -87.48371 | 31934 ft | 419 kts | 286° |
| 2026-04-30 21:02 | 28.55896 | -87.54688 | 31935 ft | 420 kts | 286° |
| 2026-04-30 21:03 | 28.57703 | -87.61012 | 31931 ft | 420 kts | 286° |